Time;durP1;ratioP1;P1;durP2;ratioP2;P2;SDS_P1;SDS_P2;PMS_P1;PMS_P2;Temp;Humidity;BMP_temperature;BMP_pressure;BME280_temperature;BME280_humidity;BME280_pressure;Samples;Min_cycle;Max_cycle;Signal;HPM_P1;HPM_P2
2022/05/23 00:00:47;;;;;;;1.73;1.63;;;16.50;85.10;;;;;;5034459;28;20203;-88
2022/05/23 00:03:16;;;;;;;2.05;1.75;;;16.40;85.80;;;;;;5033951;28;20227;-89
2022/05/23 00:05:44;;;;;;;2.40;2.20;;;16.40;86.50;;;;;;5033885;28;20214;-89
2022/05/23 00:08:13;;;;;;;2.40;2.20;;;16.30;86.80;;;;;;5034112;28;20202;-88
2022/05/23 00:10:41;;;;;;;2.42;2.22;;;16.30;87.40;;;;;;5034071;28;20252;-89
2022/05/23 00:13:11;;;;;;;1.70;1.60;;;16.30;87.70;;;;;;5033745;28;20273;-89
2022/05/23 00:15:40;;;;;;;2.15;1.95;;;16.30;88.20;;;;;;5033729;28;20202;-89
2022/05/23 00:18:08;;;;;;;2.08;1.90;;;16.30;89.00;;;;;;5033865;28;20206;-89
2022/05/23 00:20:37;;;;;;;2.75;1.75;;;16.30;89.20;;;;;;5033346;28;20245;-88
2022/05/23 00:23:05;;;;;;;2.53;1.83;;;16.30;89.60;;;;;;5033769;28;20222;-89
2022/05/23 00:25:34;;;;;;;5.15;2.50;;;16.20;89.30;;;;;;5033891;28;20202;-88
2022/05/23 00:28:03;;;;;;;2.40;2.08;;;16.20;90.20;;;;;;5033661;28;20206;-89
2022/05/23 00:30:32;;;;;;;2.05;1.88;;;16.30;90.40;;;;;;5033129;28;20202;-88
2022/05/23 00:35:52;;;;;;;1.70;1.60;;;16.20;90.50;;;;;;5033260;28;20233;-88
2022/05/23 00:38:21;;;;;;;1.88;1.77;;;16.20;91.00;;;;;;5033615;28;20205;-88
2022/05/23 00:43:13;;;;;;;2.47;1.95;;;16.20;91.10;;;;;;5033057;28;20202;-89
2022/05/23 00:43:41;;;;;;;20.08;2.25;;;16.10;92.10;;;;;;5032863;28;20226;-89
2022/05/23 00:46:12;;;;;;;2.53;2.33;;;16.20;93.40;;;;;;5033340;28;20221;-89
2022/05/23 00:48:41;;;;;;;7.07;2.28;;;16.10;94.30;;;;;;5033660;28;20241;-89
2022/05/23 00:51:13;;;;;;;1.92;1.83;;;16.00;94.90;;;;;;5033487;28;20210;-88
2022/05/23 00:53:45;;;;;;;2.05;1.83;;;15.90;95.50;;;;;;5032904;28;20230;-89
2022/05/23 00:56:17;;;;;;;3.00;2.70;;;15.90;96.10;;;;;;5033252;28;20206;-89
2022/05/23 00:58:48;;;;;;;3.80;2.20;;;15.80;96.90;;;;;;5033166;28;20206;-89
2022/05/23 01:01:23;;;;;;;3.90;2.22;;;15.80;97.70;;;;;;5032847;28;20418;-88
2022/05/23 01:03:51;;;;;;;2.92;2.63;;;15.80;98.00;;;;;;5032819;28;20283;-89
2022/05/23 01:06:20;;;;;;;2.00;1.90;;;15.70;98.60;;;;;;5033108;28;20210;-88
2022/05/23 01:08:51;;;;;;;2.47;2.28;;;15.60;99.30;;;;;;5033423;28;20202;-88
2022/05/23 01:11:21;;;;;;;2.83;2.53;;;15.60;99.90;;;;;;5032714;28;20264;-88
2022/05/23 01:13:49;;;;;;;2.28;2.08;;;15.50;99.90;;;;;;5032673;28;20226;-88
2022/05/23 01:16:19;;;;;;;2.50;2.03;;;15.40;99.90;;;;;;5032789;28;20206;-88
2022/05/23 01:18:47;;;;;;;3.75;2.13;;;15.30;99.90;;;;;;5032987;28;20206;-88
2022/05/23 01:21:24;;;;;;;2.20;2.00;;;15.10;99.90;;;;;;5032640;28;20206;-88
2022/05/23 01:24:00;;;;;;;2.28;2.08;;;15.10;99.90;;;;;;5032476;28;20218;-89
2022/05/23 01:26:32;;;;;;;2.80;2.53;;;15.00;99.90;;;;;;5032623;28;20238;-88
2022/05/23 01:29:01;;;;;;;2.53;2.30;;;15.00;99.90;;;;;;5032459;28;20218;-88
2022/05/23 01:31:29;;;;;;;2.40;2.08;;;15.00;99.90;;;;;;5032778;28;20229;-88
2022/05/23 01:33:58;;;;;;;3.33;2.33;;;15.00;99.90;;;;;;5032423;28;20230;-88
2022/05/23 01:36:26;;;;;;;2.83;2.63;;;15.00;99.90;;;;;;5032400;28;20210;-89
2022/05/23 01:38:55;;;;;;;1.95;1.85;;;15.00;99.90;;;;;;5032553;28;20299;-88
2022/05/23 01:41:23;;;;;;;2.35;2.15;;;15.00;99.90;;;;;;5032409;28;20210;-89
2022/05/23 01:43:53;;;;;;;4.93;2.28;;;15.00;99.90;;;;;;5032800;28;20297;-88
2022/05/23 01:46:22;;;;;;;3.75;2.70;;;15.00;99.90;;;;;;5032584;28;20209;-88
2022/05/23 01:48:50;;;;;;;2.53;2.33;;;15.10;99.90;;;;;;5032359;28;20206;-88
2022/05/23 01:51:19;;;;;;;2.20;2.00;;;15.10;99.90;;;;;;5031946;28;20214;-88
2022/05/23 01:53:47;;;;;;;2.38;2.13;;;15.10;99.90;;;;;;5032424;28;20222;-88
2022/05/23 01:56:15;;;;;;;2.45;2.33;;;15.10;99.90;;;;;;5035553;28;20210;-88
2022/05/23 02:01:31;;;;;;;2.97;2.35;;;15.20;99.90;;;;;;5036234;28;20206;-88
2022/05/23 02:04:00;;;;;;;2.70;2.50;;;15.20;99.90;;;;;;5036352;28;20230;-88
2022/05/23 02:06:28;;;;;;;2.45;2.20;;;15.20;99.90;;;;;;5036311;28;20214;-88
2022/05/23 02:08:56;;;;;;;2.17;2.08;;;15.30;99.90;;;;;;5036060;28;20218;-88
2022/05/23 02:11:25;;;;;;;2.53;2.33;;;15.30;99.90;;;;;;5036717;28;20202;-88
2022/05/23 02:13:53;;;;;;;2.90;2.58;;;15.30;99.90;;;;;;5036061;28;20254;-88
2022/05/23 02:16:22;;;;;;;3.47;2.70;;;15.30;99.90;;;;;;5036089;28;20202;-87
2022/05/23 02:18:52;;;;;;;2.78;2.55;;;15.20;99.90;;;;;;5036145;28;20284;-88
2022/05/23 02:21:21;;;;;;;4.90;2.22;;;15.20;99.90;;;;;;5035908;28;20207;-89
2022/05/23 02:23:49;;;;;;;2.65;2.45;;;15.20;99.90;;;;;;5035875;28;20238;-88
2022/05/23 02:26:18;;;;;;;2.88;2.67;;;15.10;99.90;;;;;;5036025;28;20199;-88
2022/05/23 02:28:46;;;;;;;2.22;2.10;;;15.10;99.90;;;;;;5035607;28;20202;-88
2022/05/23 02:31:14;;;;;;;2.70;2.47;;;15.10;99.90;;;;;;5035693;28;20284;-88
2022/05/23 02:33:43;;;;;;;3.30;2.80;;;15.10;99.90;;;;;;5036154;28;20316;-88
2022/05/23 02:36:13;;;;;;;2.83;2.38;;;15.10;99.90;;;;;;5035193;28;20283;-88
2022/05/23 02:38:41;;;;;;;2.80;2.60;;;15.10;99.90;;;;;;5036033;28;20226;-89
2022/05/23 02:41:10;;;;;;;2.25;2.03;;;15.10;99.90;;;;;;5035322;28;20226;-88
2022/05/23 02:43:39;;;;;;;2.92;2.63;;;15.10;99.90;;;;;;5035063;28;20222;-88
2022/05/23 02:46:07;;;;;;;2.85;2.65;;;15.10;99.90;;;;;;5035369;28;20221;-88
2022/05/23 02:48:36;;;;;;;12.13;3.20;;;15.10;99.90;;;;;;5035370;28;20297;-87
2022/05/23 02:51:04;;;;;;;4.20;2.72;;;15.10;99.90;;;;;;5035244;28;20218;-88
2022/05/23 02:53:34;;;;;;;6.63;2.17;;;15.10;99.90;;;;;;5035370;28;20280;-88
2022/05/23 02:56:03;;;;;;;4.38;2.67;;;15.00;99.90;;;;;;5035506;28;20218;-88
2022/05/23 02:58:31;;;;;;;4.03;3.22;;;15.00;99.90;;;;;;5035322;28;20210;-88
2022/05/23 03:01:00;;;;;;;2.72;2.45;;;15.00;99.90;;;;;;5035342;28;20248;-88
2022/05/23 03:03:27;;;;;;;4.30;3.03;;;15.00;99.90;;;;;;5035225;28;20226;-88
2022/05/23 03:05:56;;;;;;;2.70;2.50;;;15.00;99.90;;;;;;5035192;28;20198;-87
2022/05/23 03:08:26;;;;;;;3.22;2.35;;;14.90;99.90;;;;;;5034592;28;20237;-88
2022/05/23 03:10:59;;;;;;;2.83;2.63;;;15.00;99.90;;;;;;5035072;28;20203;-87
2022/05/23 03:13:28;;;;;;;2.65;2.42;;;14.90;99.90;;;;;;5034929;28;20230;-88
2022/05/23 03:15:58;;;;;;;3.00;2.55;;;14.90;99.90;;;;;;5034788;28;20288;-88
2022/05/23 03:18:26;;;;;;;2.38;2.13;;;14.90;99.90;;;;;;5035100;28;20214;-88
2022/05/23 03:21:01;;;;;;;2.60;2.40;;;14.90;99.90;;;;;;5034607;28;20202;-88
2022/05/23 03:29:03;;;;;;;2.50;2.30;;;14.90;99.90;;;;;;5034668;28;20226;-88
2022/05/23 03:31:32;;;;;;;2.10;2.00;;;14.90;99.90;;;;;;5034783;28;20206;-88
2022/05/23 03:34:00;;;;;;;3.83;2.30;;;14.90;99.90;;;;;;5034617;28;20234;-88
2022/05/23 03:36:29;;;;;;;3.72;2.28;;;14.90;99.90;;;;;;5034043;28;20246;-87
2022/05/23 03:38:57;;;;;;;3.28;2.78;;;14.80;99.90;;;;;;5034619;28;20206;-88
2022/05/23 03:41:27;;;;;;;2.25;2.03;;;14.80;99.90;;;;;;5034557;28;20230;-88
2022/05/23 03:43:55;;;;;;;3.42;2.80;;;14.80;99.90;;;;;;5034824;28;20234;-87
2022/05/23 03:46:24;;;;;;;2.30;2.10;;;14.80;99.90;;;;;;5034467;28;20256;-87
2022/05/23 03:48:52;;;;;;;3.75;2.55;;;14.80;99.90;;;;;;5034298;28;20202;-87
2022/05/23 03:51:21;;;;;;;2.20;2.00;;;14.80;99.90;;;;;;5033898;28;20240;-87
2022/05/23 03:53:49;;;;;;;2.40;2.20;;;14.80;99.90;;;;;;5034246;28;20230;-89
2022/05/23 03:56:18;;;;;;;3.38;2.47;;;14.80;99.90;;;;;;5034490;28;20244;-87
2022/05/23 03:58:48;;;;;;;3.72;2.95;;;14.80;99.90;;;;;;5034594;28;20229;-87
2022/05/23 04:01:21;;;;;;;4.97;2.53;;;14.80;99.90;;;;;;5034110;28;20206;-88
2022/05/23 04:03:49;;;;;;;2.50;2.30;;;14.80;99.90;;;;;;5033884;28;20230;-88
2022/05/23 04:06:18;;;;;;;2.42;2.17;;;14.80;99.90;;;;;;5034185;28;20203;-88
2022/05/23 04:08:47;;;;;;;2.47;2.25;;;14.80;99.90;;;;;;5034240;28;20214;-88
2022/05/23 04:11:15;;;;;;;2.60;2.40;;;14.80;99.90;;;;;;5034022;28;20210;-88
2022/05/23 04:13:43;;;;;;;2.80;2.60;;;14.90;99.90;;;;;;5033964;28;20230;-88
2022/05/23 04:16:14;;;;;;;2.65;2.45;;;14.90;99.90;;;;;;5033605;28;20276;-88
2022/05/23 04:18:42;;;;;;;3.75;2.92;;;15.00;99.90;;;;;;5033078;28;20229;-87
2022/05/23 04:21:10;;;;;;;3.42;3.00;;;15.10;99.90;;;;;;5033447;28;20264;-88
2022/05/23 04:23:39;;;;;;;3.08;2.63;;;15.10;99.90;;;;;;5033947;28;20222;-87
2022/05/23 04:26:08;;;;;;;2.67;2.17;;;15.20;99.90;;;;;;5033640;28;20206;-87
2022/05/23 04:28:39;;;;;;;2.63;2.42;;;15.20;99.90;;;;;;5033610;28;20206;-88
2022/05/23 04:31:08;;;;;;;3.15;2.60;;;15.30;99.90;;;;;;5033252;28;20202;-88
2022/05/23 04:36:24;;;;;;;2.03;1.92;;;15.40;99.90;;;;;;5033080;28;20288;-88
2022/05/23 04:38:53;;;;;;;4.20;2.47;;;15.50;99.90;;;;;;5033378;28;20206;-87
2022/05/23 04:41:21;;;;;;;2.25;2.05;;;15.50;99.90;;;;;;5033275;28;20199;-87
2022/05/23 04:43:50;;;;;;;2.38;2.10;;;15.50;99.90;;;;;;5033122;28;20226;-87
2022/05/23 04:46:18;;;;;;;2.33;1.98;;;15.60;99.90;;;;;;5033437;28;20249;-88
2022/05/23 04:51:35;;;;;;;6.18;2.05;;;15.70;99.90;;;;;;5033076;28;20270;-87
2022/05/23 04:54:05;;;;;;;3.58;2.33;;;15.70;99.90;;;;;;5033122;28;20230;-88
2022/05/23 04:56:40;;;;;;;6.00;2.65;;;15.80;99.90;;;;;;5032976;28;20225;-87
2022/05/23 04:59:17;;;;;;;2.50;2.30;;;15.90;99.90;;;;;;5032988;28;20202;-87
2022/05/23 05:04:38;;;;;;;2.50;2.30;;;16.00;99.90;;;;;;5031940;28;20237;-88
2022/05/23 05:07:14;;;;;;;3.28;2.08;;;16.00;99.90;;;;;;5033165;28;20206;-87
2022/05/23 05:09:52;;;;;;;2.60;2.38;;;16.00;99.90;;;;;;5032814;28;20268;-88
2022/05/23 05:12:27;;;;;;;2.20;1.95;;;16.10;99.90;;;;;;5032460;28;20225;-88
2022/05/23 05:14:59;;;;;;;2.00;1.80;;;16.20;99.90;;;;;;5032486;28;20212;-88
2022/05/23 05:17:41;;;;;;;2.10;1.90;;;16.20;99.90;;;;;;5032846;28;20221;-88
2022/05/23 05:20:19;;;;;;;2.92;2.38;;;16.20;99.90;;;;;;5032444;28;20219;-89
2022/05/23 05:22:52;;;;;;;4.72;2.03;;;16.30;99.90;;;;;;5032205;28;20228;-87
2022/05/23 05:25:31;;;;;;;2.08;1.88;;;16.30;99.90;;;;;;5032738;28;20213;-88
2022/05/23 05:28:02;;;;;;;1.58;1.48;;;16.40;99.90;;;;;;5032546;28;20210;-88
2022/05/23 05:30:39;;;;;;;2.13;1.98;;;16.40;99.90;;;;;;5032122;28;20210;-88
2022/05/23 05:33:13;;;;;;;2.03;1.70;;;16.50;99.90;;;;;;5032671;28;20244;-88
2022/05/23 05:35:53;;;;;;;2.53;2.28;;;16.50;99.90;;;;;;5031996;28;20214;-88
2022/05/23 05:38:29;;;;;;;3.58;1.90;;;16.50;99.20;;;;;;5032680;28;20225;-88
2022/05/23 05:41:06;;;;;;;2.38;2.08;;;16.60;99.20;;;;;;5032226;28;20217;-88
2022/05/23 05:44:08;;;;;;;2.17;1.92;;;16.60;99.20;;;;;;5032321;28;20226;-88
2022/05/23 06:01:45;;;;;;;2.30;1.90;;;17.00;97.40;;;;;;4971281;28;20208;-88
2022/05/23 06:04:21;;;;;;;1.88;1.60;;;17.10;96.50;;;;;;5336821;22;20234;-89
2022/05/23 06:35:54;;;;;;;1.40;1.30;;;18.00;92.90;;;;;;5223801;22;20246;-87
2022/05/23 06:38:43;;;;;;;2.30;1.92;;;18.10;92.50;;;;;;5032389;28;20203;-87
2022/05/23 06:45:54;;;;;;;1.60;1.50;;;18.50;92.40;;;;;;5013106;28;20231;-87
2022/05/23 06:59:38;;;;;;;2.65;1.48;;;18.90;91.50;;;;;;4897007;29;20255;-88
2022/05/23 07:13:32;;;;;;;4.47;1.85;;;19.70;90.30;;;;;;4797350;29;20240;-88
2022/05/23 07:16:00;;;;;;;1.60;1.50;;;19.80;86.90;;;;;;4868090;29;20217;-88
2022/05/23 07:18:41;;;;;;;2.33;2.00;;;20.00;86.10;;;;;;4935236;29;20236;-88
2022/05/23 07:21:09;;;;;;;1.63;1.52;;;20.10;86.10;;;;;;4935411;29;20218;-88
2022/05/23 07:23:39;;;;;;;1.95;1.50;;;20.20;85.40;;;;;;4935467;29;20229;-89
2022/05/23 07:26:16;;;;;;;1.45;1.35;;;20.60;84.80;;;;;;4935444;29;20214;-88
2022/05/23 07:28:46;;;;;;;1.98;1.73;;;21.20;82.20;;;;;;4935807;29;20214;-88
2022/05/23 08:17:27;;;;;;;1.50;1.40;;;22.60;72.20;;;;;;4663345;30;20243;-88
2022/05/23 08:20:27;;;;;;;1.75;1.30;;;22.80;72.40;;;;;;4706800;30;20218;-88
2022/05/23 08:23:06;;;;;;;1.60;1.50;;;23.30;72.80;;;;;;4727027;30;20232;-88
2022/05/23 08:25:42;;;;;;;2.03;1.50;;;23.50;71.00;;;;;;4750506;30;20238;-88
2022/05/23 08:31:45;;;;;;;1.98;1.60;;;24.80;69.40;;;;;;4895942;29;20296;-88
2022/05/23 08:34:55;;;;;;;2.45;1.58;;;25.30;67.80;;;;;;4896206;29;20239;-88
2022/05/23 08:37:33;;;;;;;1.25;1.15;;;25.40;67.70;;;;;;4891145;29;20310;-88
2022/05/23 08:40:42;;;;;;;1.65;1.30;;;26.20;67.30;;;;;;4895971;29;20207;-88
2022/05/23 08:43:19;;;;;;;1.35;1.27;;;27.20;63.40;;;;;;4896531;29;20234;-88
2022/05/23 08:46:01;;;;;;;1.77;1.20;;;28.20;61.20;;;;;;4922638;29;20292;-89
2022/05/23 08:48:52;;;;;;;1.50;1.40;;;27.90;60.30;;;;;;4931278;29;20210;-87
2022/05/23 08:54:35;;;;;;;1.40;1.30;;;27.70;60.70;;;;;;5024469;23;20233;-88
2022/05/23 08:58:01;;;;;;;;;;;;;;;;;;;;;
2022/05/23 09:04:09;;;;;;;2.58;1.27;;;27.00;60.70;;;;;;4996443;28;20230;-88
2022/05/23 09:10:05;;;;;;;1.33;1.23;;;28.00;59.40;;;;;;5031028;28;20305;-88
2022/05/23 09:23:58;;;;;;;2.90;1.50;;;28.20;57.30;;;;;;4839384;29;20252;-88
2022/05/23 09:34:51;;;;;;;1.77;1.67;;;29.10;54.80;;;;;;4821539;29;20256;-88
2022/05/23 09:55:14;;;;;;;2.75;1.60;;;29.80;53.30;;;;;;4939505;23;20240;-88
2022/05/23 09:57:51;;;;;;;1.30;1.20;;;29.80;54.80;;;;;;4935295;29;20225;-88
2022/05/23 10:47:09;;;;;;;;;;;;;;;;;;;;;
2022/05/23 10:49:54;;;;;;;4.78;1.90;;;27.50;56.50;;;;;;4919075;29;20231;-87
2022/05/23 11:03:17;;;;;;;2.40;2.20;;;28.80;55.30;;;;;;5057689;23;20242;-86
2022/05/23 11:05:59;;;;;;;7.90;1.52;;;29.10;55.30;;;;;;4937863;29;20243;-86
2022/05/23 11:09:04;;;;;;;3.05;1.58;;;29.10;53.50;;;;;;4937988;29;20285;-87
2022/05/23 11:12:03;;;;;;;1.30;1.30;;;29.40;54.30;;;;;;4937951;29;20235;-89
2022/05/23 11:14:53;;;;;;;3.60;2.75;;;29.30;54.10;;;;;;4937617;29;20233;-89
2022/05/23 11:17:34;;;;;;;2.00;1.88;;;29.50;53.50;;;;;;4937708;29;20202;-90
2022/05/23 11:20:20;;;;;;;2.95;1.88;;;29.80;54.90;;;;;;4937461;29;20213;-89
2022/05/23 11:23:04;;;;;;;1.73;1.60;;;29.60;52.80;;;;;;4937067;29;20281;-89
2022/05/23 11:26:00;;;;;;;4.20;1.80;;;29.00;53.40;;;;;;4937501;29;20220;-90
2022/05/23 11:34:27;;;;;;;3.90;1.70;;;27.60;56.30;;;;;;4897351;29;20231;-89
2022/05/23 11:37:09;;;;;;;3.92;1.80;;;27.10;56.20;;;;;;4922242;29;20214;-88
2022/05/23 11:39:45;;;;;;;4.63;1.90;;;27.00;57.20;;;;;;4937242;29;20226;-90
2022/05/23 11:42:27;;;;;;;3.20;1.88;;;27.10;57.40;;;;;;4936956;29;20260;-89
2022/05/23 11:48:54;;;;;;;1.90;1.70;;;27.60;56.50;;;;;;4936979;29;20276;-87
2022/05/23 11:51:41;;;;;;;2.03;1.70;;;27.70;56.20;;;;;;4937017;29;20261;-87
2022/05/23 11:54:14;;;;;;;2.05;1.92;;;27.70;55.80;;;;;;4937033;29;20297;-87
2022/05/23 11:57:05;;;;;;;2.47;1.50;;;28.00;56.50;;;;;;4937034;29;20210;-87
2022/05/23 12:00:26;;;;;;;2.08;1.75;;;27.90;56.10;;;;;;4935964;29;20222;-87
2022/05/23 12:03:16;;;;;;;1.50;1.40;;;28.00;56.60;;;;;;4936414;29;20236;-88
2022/05/23 12:05:45;;;;;;;3.05;1.80;;;28.10;56.50;;;;;;4936684;29;20272;-87
2022/05/23 12:08:37;;;;;;;1.80;1.70;;;27.80;56.20;;;;;;4936822;29;20273;-87
2022/05/23 12:11:22;;;;;;;2.28;1.77;;;27.20;56.80;;;;;;4936767;29;20222;-89
2022/05/23 12:13:52;;;;;;;1.42;1.33;;;27.00;57.60;;;;;;4936405;29;20234;-90
2022/05/23 12:16:37;;;;;;;1.88;1.55;;;26.80;57.70;;;;;;4936385;29;20281;-89
2022/05/23 12:19:48;;;;;;;5.70;1.92;;;26.10;58.30;;;;;;4936480;29;20304;-89
2022/05/23 12:22:24;;;;;;;2.17;1.80;;;25.70;59.10;;;;;;4936318;29;20273;-90
2022/05/23 12:25:24;;;;;;;1.92;1.83;;;25.40;59.60;;;;;;4936073;29;20288;-89
2022/05/23 12:28:21;;;;;;;2.83;1.92;;;25.00;61.00;;;;;;4936431;29;20214;-89
2022/05/23 12:31:09;;;;;;;3.30;1.70;;;24.70;61.40;;;;;;4935967;29;20265;-89
2022/05/23 12:33:44;;;;;;;2.10;1.90;;;24.50;62.10;;;;;;4936266;29;20230;-89
2022/05/23 12:36:14;;;;;;;2.17;1.98;;;24.70;62.30;;;;;;4936107;29;20241;-89
2022/05/23 12:39:11;;;;;;;1.70;1.60;;;25.00;62.30;;;;;;4935526;29;20286;-90
2022/05/23 12:42:04;;;;;;;1.30;1.20;;;25.30;61.40;;;;;;4935764;29;20214;-87
2022/05/23 12:45:12;;;;;;;2.33;1.92;;;25.70;60.90;;;;;;4936115;29;20285;-87
2022/05/23 12:48:02;;;;;;;2.45;1.80;;;25.70;60.30;;;;;;4936209;29;20225;-87
2022/05/23 12:50:39;;;;;;;2.35;1.73;;;25.70;61.00;;;;;;4935808;29;20214;-87
2022/05/23 12:53:32;;;;;;;1.70;1.60;;;25.50;61.00;;;;;;4935755;29;20237;-87
2022/05/23 12:56:28;;;;;;;1.83;1.58;;;25.20;61.40;;;;;;4935890;29;20269;-87
2022/05/23 12:59:26;;;;;;;2.45;1.83;;;24.90;62.50;;;;;;4935647;29;20229;-88
2022/05/23 13:02:02;;;;;;;2.00;1.70;;;24.80;63.40;;;;;;4935579;29;20228;-89
2022/05/23 13:04:39;;;;;;;2.08;1.88;;;24.70;63.00;;;;;;4935813;29;20308;-87
2022/05/23 13:07:12;;;;;;;3.55;2.05;;;24.50;63.20;;;;;;4935590;29;20213;-88
2022/05/23 13:09:47;;;;;;;3.05;1.83;;;24.30;63.90;;;;;;4935385;29;20209;-87
2022/05/23 13:12:22;;;;;;;1.90;1.75;;;24.10;63.70;;;;;;4935241;29;20225;-89
2022/05/23 13:14:53;;;;;;;3.78;2.17;;;24.00;64.80;;;;;;4935513;29;20273;-89
2022/05/23 13:17:39;;;;;;;2.75;1.98;;;24.10;64.90;;;;;;4935852;29;20220;-89
2022/05/23 13:23:24;;;;;;;2.85;2.03;;;24.50;65.20;;;;;;4935370;29;20230;-89
2022/05/23 13:25:55;;;;;;;2.28;1.70;;;25.10;65.10;;;;;;4935361;29;20248;-89
2022/05/23 13:28:25;;;;;;;3.80;2.30;;;25.60;63.30;;;;;;4935321;29;20205;-90
2022/05/23 13:30:56;;;;;;;12.00;2.42;;;26.00;63.00;;;;;;4934645;29;20214;-90
2022/05/23 13:33:30;;;;;;;2.20;2.00;;;26.30;62.50;;;;;;4935111;29;20226;-90
2022/05/23 13:36:02;;;;;;;2.22;1.88;;;26.20;61.90;;;;;;4935144;29;20269;-90
2022/05/23 13:38:34;;;;;;;2.25;1.65;;;26.50;62.30;;;;;;4935038;29;20272;-90
2022/05/23 13:41:16;;;;;;;2.33;2.13;;;26.60;62.00;;;;;;4934864;29;20293;-90
2022/05/23 13:43:46;;;;;;;2.17;1.55;;;26.70;61.40;;;;;;4935397;29;20237;-90
2022/05/23 13:46:18;;;;;;;2.40;1.77;;;26.80;61.40;;;;;;4935198;29;20264;-90
2022/05/23 13:48:51;;;;;;;3.45;2.88;;;26.50;62.00;;;;;;4935069;29;20213;-90
2022/05/23 13:51:24;;;;;;;3.05;2.22;;;26.20;62.10;;;;;;4936406;29;20221;-90
2022/05/23 13:53:58;;;;;;;2.63;1.92;;;25.80;63.20;;;;;;4939445;29;20225;-90
2022/05/23 13:56:27;;;;;;;3.17;2.17;;;25.40;63.70;;;;;;4938865;29;20213;-89
2022/05/23 13:58:59;;;;;;;2.45;1.88;;;25.20;64.20;;;;;;4938973;29;20222;-90
2022/05/23 14:01:37;;;;;;;1.70;1.45;;;25.20;64.20;;;;;;4938489;29;20205;-90
2022/05/23 14:04:11;;;;;;;2.50;2.00;;;25.10;64.70;;;;;;4938845;29;20233;-90
2022/05/23 14:06:54;;;;;;;6.78;2.00;;;25.30;64.40;;;;;;4939040;29;20213;-90
2022/05/23 14:09:40;;;;;;;2.38;2.00;;;25.30;64.70;;;;;;4938918;29;20209;-90
2022/05/23 14:12:13;;;;;;;2.45;2.10;;;25.20;64.70;;;;;;4938750;29;20205;-90
2022/05/23 14:14:45;;;;;;;2.53;2.33;;;25.10;65.10;;;;;;4938735;29;20273;-90
2022/05/23 14:17:18;;;;;;;2.28;2.08;;;25.00;65.00;;;;;;4938646;29;20256;-90
2022/05/23 14:19:50;;;;;;;2.63;2.22;;;25.10;64.90;;;;;;4938355;29;20221;-90
2022/05/23 14:22:30;;;;;;;2.40;2.20;;;24.90;65.20;;;;;;4938577;29;20202;-90
2022/05/23 14:25:01;;;;;;;2.15;1.95;;;24.70;66.00;;;;;;4939048;29;20213;-90
2022/05/23 14:27:34;;;;;;;1.70;1.60;;;24.60;66.20;;;;;;4938285;29;20225;-90
2022/05/23 14:30:19;;;;;;;2.05;1.88;;;24.50;66.30;;;;;;4938111;29;20230;-90
2022/05/23 14:32:56;;;;;;;4.05;1.77;;;24.40;66.50;;;;;;4938139;29;20217;-89
2022/05/23 14:35:37;;;;;;;2.65;1.80;;;24.50;66.70;;;;;;4938479;29;20284;-90
2022/05/23 14:38:24;;;;;;;3.00;2.10;;;24.40;67.10;;;;;;4938597;29;20218;-91
2022/05/23 14:40:52;;;;;;;2.83;2.50;;;24.30;67.50;;;;;;4937852;29;20225;-90
2022/05/23 14:43:31;;;;;;;2.58;2.13;;;24.30;67.30;;;;;;4938416;29;20252;-90
2022/05/23 14:46:16;;;;;;;2.28;2.08;;;24.50;66.80;;;;;;4938057;29;20233;-90
2022/05/23 14:48:54;;;;;;;2.63;2.40;;;24.30;67.20;;;;;;4937963;29;20217;-90
2022/05/23 14:51:31;;;;;;;2.92;2.33;;;24.20;67.80;;;;;;4938104;29;20202;-89
2022/05/23 14:56:53;;;;;;;2.55;2.30;;;24.20;67.90;;;;;;4937499;29;20206;-90
2022/05/23 15:02:18;;;;;;;2.10;1.98;;;24.00;68.40;;;;;;4936788;29;20252;-90
2022/05/23 15:04:47;;;;;;;2.65;2.33;;;24.10;68.80;;;;;;4937763;29;20226;-90
2022/05/23 15:07:21;;;;;;;2.40;2.20;;;24.10;68.30;;;;;;4938293;29;20220;-91
2022/05/23 15:09:54;;;;;;;2.55;1.85;;;24.20;68.60;;;;;;4937270;29;20197;-91
2022/05/23 15:12:24;;;;;;;3.50;2.30;;;24.20;68.40;;;;;;4937446;29;20206;-91
2022/05/23 15:15:20;;;;;;;2.75;2.25;;;24.10;68.10;;;;;;4937629;29;20270;-90
2022/05/23 15:17:48;;;;;;;2.13;1.95;;;24.00;68.50;;;;;;4932119;29;20201;-89
2022/05/23 15:20:18;;;;;;;3.00;2.25;;;23.90;68.30;;;;;;4937481;29;20241;-90
2022/05/23 15:22:52;;;;;;;3.70;2.22;;;23.70;68.60;;;;;;4937441;29;20221;-90
2022/05/23 15:25:21;;;;;;;14.60;2.72;;;23.60;69.00;;;;;;4937218;29;20256;-90
2022/05/23 15:27:55;;;;;;;2.90;2.00;;;23.60;69.90;;;;;;4937199;29;20202;-90
2022/05/23 15:30:30;;;;;;;2.70;2.50;;;23.70;68.50;;;;;;4937561;29;20213;-90
2022/05/23 15:33:01;;;;;;;2.13;1.92;;;23.50;68.50;;;;;;4937194;29;20229;-90
2022/05/23 15:35:30;;;;;;;5.18;2.38;;;23.70;68.60;;;;;;4937261;29;20216;-90
2022/05/23 15:38:00;;;;;;;2.05;1.85;;;23.70;68.00;;;;;;4937391;29;20205;-90
2022/05/23 15:40:30;;;;;;;2.40;2.20;;;23.70;68.30;;;;;;4936717;29;20246;-90
2022/05/23 15:43:15;;;;;;;;;;;;;;;;;;;;;
2022/05/23 15:45:47;;;;;;;2.42;2.22;;;23.50;68.10;;;;;;4936927;29;20264;-90
2022/05/23 15:48:18;;;;;;;3.80;2.05;;;23.40;68.50;;;;;;4937449;29;20209;-90
2022/05/23 15:50:47;;;;;;;2.42;2.22;;;23.30;68.60;;;;;;4936820;29;20265;-90
2022/05/23 15:53:18;;;;;;;4.18;2.40;;;23.10;68.80;;;;;;4936808;29;20241;-91
2022/05/23 15:55:50;;;;;;;2.55;2.35;;;23.00;69.00;;;;;;4936448;29;20206;-90
2022/05/23 15:58:30;;;;;;;2.30;1.90;;;23.00;69.40;;;;;;4937356;29;20209;-90
2022/05/23 16:00:58;;;;;;;2.20;1.75;;;22.80;69.80;;;;;;4936819;29;20222;-90
2022/05/23 16:03:27;;;;;;;3.45;2.25;;;22.70;69.70;;;;;;4936739;29;20261;-90
2022/05/23 16:06:00;;;;;;;2.55;2.15;;;22.70;70.10;;;;;;4936442;29;20301;-90
2022/05/23 16:08:31;;;;;;;2.90;2.60;;;22.60;70.00;;;;;;4936768;29;20201;-90
2022/05/23 16:11:05;;;;;;;2.40;2.20;;;22.70;69.90;;;;;;4936592;29;20218;-90
2022/05/23 16:13:36;;;;;;;2.70;1.90;;;22.70;69.90;;;;;;4936274;29;20257;-90
2022/05/23 16:16:06;;;;;;;2.17;1.98;;;22.70;69.70;;;;;;4936511;29;20198;-90
2022/05/23 16:18:37;;;;;;;1.85;1.75;;;22.70;69.80;;;;;;4936198;29;20214;-90
2022/05/23 16:21:06;;;;;;;2.08;1.92;;;22.60;69.80;;;;;;4936092;29;20248;-90
2022/05/23 16:23:36;;;;;;;2.15;1.95;;;22.60;70.00;;;;;;4936467;29;20225;-89
2022/05/23 16:26:05;;;;;;;2.30;2.10;;;22.60;70.00;;;;;;4936336;29;20221;-90
2022/05/23 16:28:33;;;;;;;2.35;2.00;;;22.60;69.50;;;;;;4936089;29;20214;-90
2022/05/23 16:31:02;;;;;;;10.32;2.28;;;22.60;69.30;;;;;;4936063;29;20209;-90
2022/05/23 16:39:04;;;;;;;2.55;2.35;;;22.50;69.50;;;;;;4936475;29;20213;-89
2022/05/23 16:41:33;;;;;;;2.92;2.35;;;22.50;69.20;;;;;;4935843;29;20347;-90
2022/05/23 16:44:02;;;;;;;6.80;2.33;;;22.50;69.20;;;;;;4936006;29;20233;-89
2022/05/23 16:46:31;;;;;;;2.17;1.98;;;22.50;69.50;;;;;;4936026;29;20205;-90
2022/05/23 16:49:00;;;;;;;3.53;2.40;;;22.40;69.20;;;;;;4935851;29;20206;-91
2022/05/23 16:51:29;;;;;;;2.00;1.83;;;22.40;69.80;;;;;;4935980;29;20257;-90
2022/05/23 16:57:21;;;;;;;2.80;1.85;;;22.40;70.10;;;;;;4935993;29;20205;-89
2022/05/23 16:59:50;;;;;;;2.47;2.28;;;22.40;69.80;;;;;;4936018;29;20218;-89
2022/05/23 17:02:43;;;;;;;2.47;2.05;;;22.40;69.80;;;;;;4935871;29;20229;-90
2022/05/23 17:05:11;;;;;;;2.75;2.25;;;22.30;69.70;;;;;;4926116;29;20286;-89
2022/05/23 17:07:39;;;;;;;6.57;2.30;;;22.30;70.00;;;;;;4935794;29;20209;-90
2022/05/23 17:10:09;;;;;;;1.77;1.67;;;22.30;70.10;;;;;;4935346;29;20206;-90
2022/05/23 17:12:46;;;;;;;2.53;2.33;;;22.20;70.10;;;;;;4935433;29;20228;-90
2022/05/23 17:15:14;;;;;;;2.35;2.15;;;22.20;70.40;;;;;;4935529;29;20221;-90
2022/05/23 17:17:42;;;;;;;2.03;1.83;;;22.20;70.60;;;;;;4935873;29;20210;-89
2022/05/23 17:28:07;;;;;;;3.08;2.05;;;21.80;71.60;;;;;;4895343;29;20230;-90
2022/05/23 17:30:35;;;;;;;2.30;2.20;;;21.70;72.40;;;;;;4895125;29;20219;-89
2022/05/23 17:33:04;;;;;;;2.42;2.15;;;21.60;72.80;;;;;;4933870;29;20229;-90
2022/05/23 17:39:33;;;;;;;2.60;2.40;;;21.50;73.10;;;;;;4897903;29;20189;-90
2022/05/23 17:42:02;;;;;;;3.00;2.33;;;21.60;73.50;;;;;;4934851;29;20225;-90
2022/05/23 17:44:32;;;;;;;3.05;2.58;;;21.50;73.50;;;;;;4935271;29;20234;-90
2022/05/23 17:47:03;;;;;;;3.72;3.03;;;21.40;74.40;;;;;;4935864;29;20206;-90
2022/05/23 17:49:32;;;;;;;2.75;2.55;;;21.40;74.00;;;;;;4935191;29;20225;-90
2022/05/23 17:52:01;;;;;;;3.80;2.63;;;21.40;75.00;;;;;;4935045;29;20261;-89
2022/05/23 17:54:29;;;;;;;4.07;2.65;;;21.30;74.40;;;;;;4935197;29;20232;-90
2022/05/23 17:56:58;;;;;;;3.15;2.40;;;21.30;74.40;;;;;;4934826;29;20202;-90
2022/05/23 17:59:27;;;;;;;3.00;2.70;;;21.20;74.60;;;;;;4935240;29;20206;-89
2022/05/23 18:01:57;;;;;;;3.03;2.72;;;21.20;75.60;;;;;;4934765;29;20234;-90
2022/05/23 18:04:26;;;;;;;4.45;2.38;;;21.20;74.80;;;;;;4934993;29;20249;-89
2022/05/23 18:06:54;;;;;;;2.75;2.28;;;21.20;75.00;;;;;;4934861;29;20217;-90
2022/05/23 18:09:23;;;;;;;4.15;2.90;;;21.10;75.00;;;;;;4934925;29;20209;-90
2022/05/23 18:11:51;;;;;;;2.58;2.38;;;21.00;75.20;;;;;;4935174;29;20257;-90